Timeline UpdatesTrip UpdatesNews PostsPvt Posts♥♥Travel TipsAdmin PostsConv PostsFollowed PostsChat RequestsBlog PostsPNR Posts

Disclaimer
Search
 
 
Thu Nov 27, 2014 05:46:07 ISTHomeTrainsΣChainsAtlasPNRForumGalleryNewsFAQTripsMembersLoginFeedback
PNR Super Search

Ticket PNR Status Inquiry - PNR: 615-xxxxxxx

OLD STATUS

Status Last Updated on: Jun 04 2011 (7:49PM) IST

Date of Journey: Sat Jun 04, 2011   Class: Sleeper - SL
Passenger 1: Confirmed (Booking Status: W/L 6,RLGN)
Chart NOT Prepared

Chirmiri Rewa Fast Passenger/51754

Travel Time: 8h 30m    14 halts    Distance: 273 km    Avg Speed: 32 km/hr
Type: Passenger
Zone: WCR/West Central
Departs @ 20:10 (Avg 14m late)
Platform# ???
SMTWTFS
Shahdol/SDL 
Arrives @ 04:40 +1 night (Avg on time)
Platform# 2
SMTWTFS
Rewa/REWA 

14 halts. 28 intermediate Stations between Shahdol and Rewa

Show ALL intermediate Stations  Show Old Time-Table

#TrkCodeStation NameX/OArrivesAvgDepartsAvgHaltPFDay#KmSpeedElevZoneAddress
1/--/CHRMChirimiri (1)  -14:45 15:00+111-125.734631mSECRChirimiri, Chhattisgarh
2/--/PRDLParadol  15:05 15:20+215:07 15:22+32m--1-114.422486mSECRDistrict Koriya, Chhattisgarh
3/--/MDGRManendragarh  15:35 15:50+115:45 16:00+210m--1-104.024493mSECRManendragarh, Chhattisgarh
4/--/BRNDBoridand JunctionX  16:03 16:18+616:05 16:20+82m--1-96.926530mSECRKaramghonga Marg, Madhya Pradesh
5/==/BJRIBijuri (2)  16:25 16:40-116:35 16:50+310m--1-88.165582mSECRShahdol, Madhya Pradesh
6/==/BATLBaihatola  16:40 16:55+616:42 16:57+52m--1-82.739546mSECRBoridand, Madhya Pradesh
7/==/KTMAKotmaX  16:58 17:13-117:00 17:15+52m--1-72.449529mSECRKotma, Madhya Pradesh
8/==/HRVHarrad  17:11 17:26+317:13 17:28+32m--1-63.469521mSECRShahdol, Madhya Pradesh
9/==/DRSNDhurwasinX  17:19 17:34-17:21 17:36-2m--1-56.469490mSECRParasi, Madhya Pradesh
10/==/MZHMauhari  17:28 17:43+117:30 17:45+22m--1-48.415497mSECRAmarkantak Rd, Madhya Pradesh
11/==/APRAnuppur Junction (4)X  18:05 18:15+618:10 18:20+95m--1-40.985487mSECRAnuppur, Madhya Pradesh
12/==/AALAmlaiX  18:18 18:29+918:20 18:31+92m--1-28.244495mSECRAnuppur, Madhya Pradesh
13/==/BUHBurharX  18:28 18:43+1818:30 18:45+322m--1-19.529494mSECRBurhar, Madhya Pradesh
14/==/SNGPSinghpurO  18:56 19:13+2518:58 19:15+302m--1-5.99502mSECRBurhar, Madhya Pradesh
15/==/SDLShahdol (3)»X  19:40 19:55+820:00 20:10+1420 15m--10.059466mSECR, Madhya Pradesh
16/==/BRSBirsinghpur (3)  20:38 20:48+3020:40 20:50+322m--137.454461mSECRPali, Madhya Pradesh
17/==/NRZBNowrozabad  20:48 20:58+5420:50 21:00+532m--144.660458mSECRNational Highway 78, Madhya Pradesh
18/==/KKIKarkeli  21:00 21:10+5321:02 21:12+532m--154.654471mSECRUmaria, Madhya Pradesh
19/==/UMRUmaria (3)  21:20 21:26+4121:25 21:31+465m--167.276469mSECRUmaria, Madhya Pradesh
20/==/CHDChandia Road (1)X  21:46+1:1321:48+1:272m1186.224406mSECRNational Highway 78, Madhya Pradesh
21/==/RPDRupaundXO  22:32+4822:34+502m--1103.610417mSECRJhalwara, Madhya Pradesh
22/==/KTEKatni Junction (6)X  00:50+201:10+420m--2125.874387mWCRKatni, Madhya Pradesh
23%==%JKEJukehi (3)  01:24+2301:25+241m--2143.273402mWCRJukehi, Madhya Pradesh
24%==%UDRAmdara (2)X  01:41+2001:42+431m--2162.774376mWCRNational Highway 34, Madhya Pradesh
25%==%MYRMaihar (3)X  02:03+2002:04+201m12188.857353mWCRMaihar Railway Station, Madhya Pradesh
26%==%UHRUnchhera (2)X  02:19+3802:20+411m--2203.021331mWCRUnchhera, Madhya Pradesh
27%==%STASatna Junction (3)  03:20+103:30+210m22224.233322mWCRSatna, Madhya Pradesh
28%--%BGHIBaghai Road (1)  04:03 04:11+304:04 04:13+21 2m12246.528299mWCRBaghai Road, Madhya Pradesh
29%--%TZRTurki Road (1)  04:19 04:27+004:20 04:29+11 2m12253.2111305mWCRRewa, Madhya Pradesh
30%--%REWARewa (2)•  04:40+0-22273.5-308mWCRRewa 486002, Madhya Pradesh
Scroll to Top
Scroll to Bottom